createdAt,value
2018-12-18T00:00:50.444Z,36.8
2018-12-18T00:02:50.472Z,36.8
2018-12-18T00:04:49.832Z,35.7
2018-12-18T00:06:49.984Z,35.9
2018-12-18T00:08:50.037Z,35.9
2018-12-18T00:10:50.116Z,37.1
2018-12-18T00:12:49.750Z,37.1
2018-12-18T00:14:49.745Z,34.7
2018-12-18T00:16:49.936Z,35.9
2018-12-18T00:18:49.942Z,37.6
2018-12-18T00:20:49.975Z,37.4
2018-12-18T00:22:49.993Z,37.4
2018-12-18T00:24:49.973Z,36.4
2018-12-18T00:26:50.107Z,36.2
2018-12-18T00:28:50.095Z,37.5
2018-12-18T00:30:50.058Z,37.5
2018-12-18T00:32:50.042Z,37.0
2018-12-18T00:34:50.312Z,36.6
2018-12-18T00:36:50.406Z,38.0
2018-12-18T00:38:50.461Z,38.0
2018-12-18T00:40:50.498Z,36.2
2018-12-18T00:42:49.594Z,39.0
2018-12-18T00:44:49.682Z,39.6
2018-12-18T00:46:49.904Z,39.6
2018-12-18T00:48:49.956Z,39.3
2018-12-18T00:50:49.949Z,39.3
2018-12-18T00:52:50.007Z,39.3
2018-12-18T00:54:49.971Z,40.1
2018-12-18T00:56:50.114Z,38.7
2018-12-18T00:58:50.152Z,38.7
2018-12-18T01:00:50.161Z,38.7
2018-12-18T01:02:50.119Z,38.7
2018-12-18T01:04:49.620Z,37.2
2018-12-18T01:06:49.796Z,38.8
2018-12-18T01:08:49.858Z,37.0
2018-12-18T01:10:49.806Z,37.0
2018-12-18T01:12:49.821Z,36.5
2018-12-18T01:14:49.834Z,37.5
2018-12-18T01:16:50.093Z,37.5
2018-12-18T01:18:50.178Z,37.5
2018-12-18T01:20:50.171Z,37.3
2018-12-18T01:22:50.171Z,35.8
2018-12-18T01:24:50.159Z,36.1
2018-12-18T01:26:50.405Z,36.1
2018-12-18T01:28:50.314Z,35.9
2018-12-18T01:30:50.272Z,36.3
2018-12-18T01:32:50.297Z,36.2
2018-12-18T01:34:49.634Z,36.2
2018-12-18T01:36:49.994Z,36.7
2018-12-18T01:38:49.939Z,36.7
2018-12-18T01:40:49.835Z,36.7
2018-12-18T01:42:49.794Z,35.2
2018-12-18T01:44:49.866Z,35.2
2018-12-18T01:46:49.918Z,34.6
2018-12-18T01:48:49.864Z,34.6
2018-12-18T01:50:49.894Z,34.8
2018-12-18T01:52:49.930Z,35.5
2018-12-18T01:54:49.893Z,35.5
2018-12-18T01:56:50.098Z,33.0
2018-12-18T01:58:50.118Z,33.0
2018-12-18T02:00:50.123Z,33.7
2018-12-18T02:02:50.080Z,32.5
2018-12-18T02:04:49.605Z,32.3
2018-12-18T02:06:49.847Z,31.8
2018-12-18T02:08:49.801Z,31.8
2018-12-18T02:10:49.838Z,30.2
2018-12-18T02:12:49.810Z,28.9
2018-12-18T02:14:50.038Z,28.9
2018-12-18T02:16:50.376Z,28.9
2018-12-18T02:18:50.452Z,28.6
2018-12-18T02:20:50.496Z,28.5
2018-12-18T02:22:49.703Z,27.2
2018-12-18T02:24:49.923Z,27.2
2018-12-18T02:26:50.221Z,27.6
2018-12-18T02:28:50.304Z,28.1
2018-12-18T02:30:50.361Z,28.0
2018-12-18T02:32:50.415Z,28.9
2018-12-18T02:34:49.853Z,28.1
2018-12-18T02:36:50.180Z,28.1
2018-12-18T02:38:50.197Z,28.1
2018-12-18T02:40:50.210Z,30.1
2018-12-18T02:42:50.236Z,29.9
2018-12-18T02:44:50.253Z,31.1
2018-12-18T02:46:49.591Z,31.1
2018-12-18T02:48:49.630Z,30.3
2018-12-18T02:50:49.637Z,31.2
2018-12-18T02:52:49.640Z,33.4
2018-12-18T02:54:49.778Z,31.7
2018-12-18T02:56:49.957Z,31.7
2018-12-18T02:58:49.974Z,32.4
2018-12-18T03:00:49.969Z,32.5
2018-12-18T03:02:49.959Z,32.5
2018-12-18T03:04:50.370Z,33.4
2018-12-18T03:06:49.562Z,32.8
2018-12-18T03:08:49.754Z,33.7
2018-12-18T03:10:49.720Z,33.9
2018-12-18T03:12:49.778Z,33.9
2018-12-18T03:14:49.788Z,35.2
2018-12-18T03:16:50.036Z,35.2
2018-12-18T03:18:50.106Z,36.4
2018-12-18T03:20:50.118Z,36.4
2018-12-18T03:22:50.171Z,36.7
2018-12-18T03:24:50.217Z,36.7
2018-12-18T03:26:49.653Z,36.7
2018-12-18T03:28:49.671Z,36.3
2018-12-18T03:30:49.768Z,35.1
2018-12-18T03:32:49.810Z,35.1
2018-12-18T03:34:50.018Z,36.6
2018-12-18T03:36:50.125Z,37.8
2018-12-18T03:38:50.176Z,40.6
2018-12-18T03:40:50.273Z,39.2
2018-12-18T03:42:50.286Z,38.9
2018-12-18T03:44:50.383Z,38.9
2018-12-18T03:46:49.642Z,39.5
2018-12-18T03:48:49.632Z,36.8
2018-12-18T03:50:49.752Z,36.9
2018-12-18T03:52:49.799Z,37.9
2018-12-18T03:54:49.818Z,37.9
2018-12-18T03:56:50.111Z,36.1
2018-12-18T03:58:50.133Z,36.2
2018-12-18T04:00:50.118Z,36.5
2018-12-18T04:02:50.154Z,36.5
2018-12-18T04:04:49.550Z,35.3
2018-12-18T04:06:49.684Z,33.8
2018-12-18T04:08:49.788Z,34.0
2018-12-18T04:10:49.876Z,32.4
2018-12-18T04:12:49.942Z,32.4
2018-12-18T04:14:50.014Z,32.2
2018-12-18T04:16:50.212Z,32.6
2018-12-18T04:18:50.166Z,31.1
2018-12-18T04:20:50.132Z,31.4
2018-12-18T04:22:50.090Z,31.4
2018-12-18T04:24:50.051Z,30.2
2018-12-18T04:26:50.257Z,30.2
2018-12-18T04:28:50.249Z,31.3
2018-12-18T04:30:50.201Z,31.3
2018-12-18T04:32:50.293Z,34.2
2018-12-18T04:34:49.630Z,31.3
2018-12-18T04:36:49.812Z,30.1
2018-12-18T04:38:49.841Z,30.4
2018-12-18T04:40:49.832Z,30.4
2018-12-18T04:42:49.948Z,30.7
2018-12-18T04:44:49.969Z,30.3
2018-12-18T04:46:50.101Z,30.3
2018-12-18T04:48:50.094Z,30.8
2018-12-18T04:50:50.092Z,30.8
2018-12-18T04:52:50.061Z,30.5
2018-12-18T04:54:50.066Z,32.1
2018-12-18T04:56:50.341Z,31.2
2018-12-18T04:58:50.286Z,31.9
2018-12-18T05:00:50.342Z,31.9
2018-12-18T05:02:50.344Z,30.1
2018-12-18T05:04:50.766Z,30.2
2018-12-18T05:06:50.024Z,30.2
2018-12-18T05:08:50.115Z,30.1
2018-12-18T05:10:50.180Z,30.1
2018-12-18T05:12:50.225Z,29.5
2018-12-18T05:14:50.219Z,30.7
2018-12-18T05:16:50.450Z,28.8
2018-12-18T05:18:49.529Z,30.3
2018-12-18T05:20:49.630Z,30.3
2018-12-18T05:22:49.619Z,29.5
2018-12-18T05:24:49.722Z,31.1
2018-12-18T05:26:50.447Z,29.8
2018-12-18T05:28:49.529Z,30.7
2018-12-18T05:30:49.559Z,30.7
2018-12-18T05:32:49.627Z,30.4
2018-12-18T05:34:56.789Z,30.0
2018-12-18T05:36:49.974Z,30.4
2018-12-18T05:38:50.006Z,30.4
2018-12-18T05:40:49.979Z,29.2
2018-12-18T05:42:49.967Z,29.7
2018-12-18T05:44:49.989Z,29.1
2018-12-18T05:46:50.258Z,29.1
2018-12-18T05:48:50.249Z,28.2
2018-12-18T05:50:50.306Z,29.2
2018-12-18T05:52:50.219Z,30.8
2018-12-18T05:54:50.322Z,30.8
2018-12-18T05:56:49.559Z,30.8
2018-12-18T05:58:49.599Z,32.4
2018-12-18T06:00:49.901Z,33.0
2018-12-18T06:02:49.949Z,33.1
2018-12-18T06:04:50.166Z,31.7
2018-12-18T06:06:50.267Z,33.8
2018-12-18T06:08:50.241Z,33.8
2018-12-18T06:10:50.319Z,33.5
2018-12-18T06:12:50.271Z,32.8
2018-12-18T06:14:50.388Z,33.1
2018-12-18T06:16:49.649Z,34.0
2018-12-18T06:18:49.776Z,34.0
2018-12-18T06:20:49.787Z,33.8
2018-12-18T06:22:49.788Z,34.4
2018-12-18T06:24:49.790Z,34.1
2018-12-18T06:26:49.912Z,34.1
2018-12-18T06:28:49.936Z,33.4
2018-12-18T06:30:49.928Z,33.4
2018-12-18T06:32:49.973Z,33.3
2018-12-18T06:34:50.344Z,33.6
2018-12-18T06:36:50.066Z,33.6
2018-12-18T06:38:50.098Z,36.8
2018-12-18T06:40:50.093Z,35.9
2018-12-18T06:42:50.073Z,36.4
2018-12-18T06:44:50.071Z,36.4
2018-12-18T06:46:50.252Z,37.4
2018-12-18T06:48:50.262Z,37.6
2018-12-18T06:50:50.366Z,37.6
2018-12-18T06:52:50.345Z,39.4
2018-12-18T06:54:50.400Z,39.4
2018-12-18T06:56:49.654Z,38.6
2018-12-18T06:58:49.653Z,38.2
2018-12-18T07:00:49.672Z,36.2
2018-12-18T07:02:49.887Z,36.2
2018-12-18T07:04:50.190Z,39.6
2018-12-18T07:06:50.380Z,39.6
2018-12-18T07:08:50.401Z,38.2
2018-12-18T07:10:50.377Z,38.2
2018-12-18T07:12:50.318Z,41.8
2018-12-18T07:14:50.341Z,41.8
2018-12-18T07:16:49.586Z,42.4
2018-12-18T07:18:49.587Z,43.0
2018-12-18T07:20:49.599Z,43.0
2018-12-18T07:22:49.545Z,42.6
2018-12-18T07:24:49.622Z,42.6
2018-12-18T07:26:49.990Z,42.5
2018-12-18T07:28:50.162Z,53.0
2018-12-18T07:30:50.134Z,45.5
2018-12-18T07:32:50.157Z,44.4
2018-12-18T07:34:50.423Z,44.4
2018-12-18T07:36:49.651Z,42.3
2018-12-18T07:38:49.746Z,42.3
2018-12-18T07:40:49.742Z,43.7
2018-12-18T07:42:49.705Z,45.3
2018-12-18T07:44:49.805Z,45.3
2018-12-18T07:46:49.986Z,45.2
2018-12-18T07:48:50.019Z,45.8
2018-12-18T07:50:50.079Z,47.7
2018-12-18T07:52:50.083Z,47.7
2018-12-18T07:54:50.100Z,43.2
2018-12-18T07:56:50.229Z,44.2
2018-12-18T07:58:50.231Z,45.6
2018-12-18T08:00:50.279Z,44.7
2018-12-18T08:02:50.225Z,44.7
2018-12-18T08:04:49.817Z,45.5
2018-12-18T08:06:49.992Z,44.8
2018-12-18T08:08:49.991Z,41.5
2018-12-18T08:10:50.053Z,40.9
2018-12-18T08:12:49.995Z,40.9
2018-12-18T08:14:49.994Z,41.2
2018-12-18T08:16:50.156Z,40.2
2018-12-18T08:18:50.390Z,40.2
2018-12-18T08:20:50.358Z,39.3
2018-12-18T08:22:49.548Z,35.9
2018-12-18T08:24:49.674Z,35.9
2018-12-18T08:26:49.890Z,34.5
2018-12-18T08:28:49.963Z,35.3
2018-12-18T08:30:50.062Z,35.3
2018-12-18T08:32:50.178Z,33.3
2018-12-18T08:34:49.503Z,32.6
2018-12-18T08:36:49.711Z,31.3
2018-12-18T08:38:49.689Z,29.7
2018-12-18T08:40:49.739Z,29.8
2018-12-18T08:42:49.766Z,29.8
2018-12-18T08:44:49.826Z,29.8
2018-12-18T08:46:49.945Z,29.1
2018-12-18T08:48:49.947Z,29.0
2018-12-18T08:50:49.943Z,29.0
2018-12-18T08:52:49.958Z,29.4
2018-12-18T08:54:50.008Z,28.9
2018-12-18T08:56:50.238Z,29.7
2018-12-18T08:58:50.220Z,29.8
2018-12-18T09:00:50.220Z,29.8
2018-12-18T09:02:50.254Z,30.2
2018-12-18T09:04:49.526Z,29.6
2018-12-18T09:06:49.699Z,29.3
2018-12-18T09:08:49.706Z,29.3
2018-12-18T09:10:49.725Z,28.7
2018-12-18T09:12:49.795Z,28.6
2018-12-18T09:14:49.758Z,28.3
2018-12-18T09:16:49.969Z,27.3
2018-12-18T09:18:49.916Z,27.3
2018-12-18T09:20:49.962Z,28.4
2018-12-18T09:22:49.914Z,27.9
2018-12-18T09:24:49.949Z,28.1
2018-12-18T09:26:50.084Z,28.1
2018-12-18T09:28:50.219Z,27.9
2018-12-18T09:30:50.162Z,27.9
2018-12-18T09:32:50.265Z,26.9
2018-12-18T09:34:49.751Z,27.4
2018-12-18T09:36:49.892Z,27.2
2018-12-18T09:38:49.805Z,27.6
2018-12-18T09:40:49.826Z,27.6
2018-12-18T09:42:49.857Z,26.0
2018-12-18T09:44:49.808Z,26.0
2018-12-18T09:46:51.167Z,24.9
2018-12-18T09:48:50.209Z,24.9
2018-12-18T09:50:50.220Z,24.3
2018-12-18T09:52:50.337Z,22.7
2018-12-18T09:54:50.350Z,24.4
2018-12-18T09:56:49.677Z,25.9
2018-12-18T09:58:49.722Z,25.9
2018-12-18T10:00:49.832Z,25.6
2018-12-18T10:02:49.947Z,26.3
2018-12-18T10:04:50.273Z,27.2
2018-12-18T10:06:50.549Z,27.2
2018-12-18T10:08:49.550Z,27.1
2018-12-18T10:10:49.564Z,26.4
2018-12-18T10:12:49.558Z,24.6
2018-12-18T10:14:50.222Z,24.6
2018-12-18T10:16:50.376Z,24.8
2018-12-18T10:18:50.396Z,24.8
2018-12-18T10:20:50.303Z,23.1
2018-12-18T10:22:50.415Z,24.0
2018-12-18T10:24:50.391Z,23.9
2018-12-18T10:26:49.677Z,23.9
2018-12-18T10:28:49.820Z,22.5
2018-12-18T10:30:49.813Z,22.2
2018-12-18T10:32:49.838Z,23.4
2018-12-18T10:34:50.143Z,22.5
2018-12-18T10:36:50.393Z,22.5
2018-12-18T10:38:50.440Z,23.0
2018-12-18T10:40:50.441Z,22.7
2018-12-18T10:42:50.466Z,21.3
2018-12-18T10:44:49.592Z,21.6
2018-12-18T10:46:49.849Z,21.6
2018-12-18T10:48:49.817Z,20.7
2018-12-18T10:50:49.777Z,19.7
2018-12-18T10:52:49.778Z,18.7
2018-12-18T10:54:49.786Z,17.5
2018-12-18T10:56:49.914Z,17.5
2018-12-18T10:58:49.923Z,17.7
2018-12-18T11:00:49.945Z,17.9
2018-12-18T11:02:49.917Z,16.2
2018-12-18T11:04:50.295Z,14.2
2018-12-18T11:06:49.533Z,14.2
2018-12-18T11:08:49.535Z,14.4
2018-12-18T11:10:49.585Z,14.9
2018-12-18T11:12:49.689Z,13.5
2018-12-18T11:14:49.691Z,13.5
2018-12-18T11:16:49.991Z,12.5
2018-12-18T11:18:50.001Z,12.1
2018-12-18T11:20:50.095Z,13.3
2018-12-18T11:22:50.366Z,13.3
2018-12-18T11:24:49.517Z,13.5
2018-12-18T11:26:49.859Z,12.9
2018-12-18T11:28:50.019Z,12.8
2018-12-18T11:30:50.154Z,12.8
2018-12-18T11:32:50.415Z,12.7
2018-12-18T11:34:50.151Z,12.7
2018-12-18T11:36:50.312Z,13.6
2018-12-18T11:38:50.257Z,13.3
2018-12-18T11:40:50.252Z,13.3
2018-12-18T11:42:50.369Z,13.7
2018-12-18T11:44:49.573Z,13.9
2018-12-18T11:46:49.894Z,13.3
2018-12-18T11:48:50.015Z,12.8
2018-12-18T11:50:50.178Z,12.5
2018-12-18T11:52:50.248Z,12.5
2018-12-18T11:54:50.212Z,12.3
2018-12-18T11:56:49.523Z,11.9
2018-12-18T11:58:49.669Z,11.9
2018-12-18T12:00:49.818Z,11.0
2018-12-18T12:02:49.952Z,11.0
2018-12-18T12:04:49.530Z,10.2
2018-12-18T12:06:49.853Z,9.9
2018-12-18T12:08:50.021Z,9.5
2018-12-18T12:10:50.155Z,9.5
2018-12-18T12:12:50.315Z,9.4
2018-12-18T12:14:50.500Z,7.7
2018-12-18T12:16:49.866Z,7.7
2018-12-18T12:18:50.049Z,7.8
2018-12-18T12:20:50.165Z,7.8
2018-12-18T12:22:50.236Z,7.3
2018-12-18T12:24:50.349Z,6.9
2018-12-18T12:26:49.653Z,6.9
2018-12-18T12:28:49.767Z,6.9
2018-12-18T12:30:49.739Z,6.3
2018-12-18T12:32:49.730Z,6.3
2018-12-18T12:34:50.194Z,6.3
2018-12-18T12:36:50.321Z,6.6
2018-12-18T12:38:50.323Z,6.6
2018-12-18T12:40:50.411Z,5.7
2018-12-18T12:42:50.416Z,6.1
2018-12-18T12:44:50.379Z,5.8
2018-12-18T12:46:49.650Z,5.8
2018-12-18T12:48:49.741Z,4.8
2018-12-18T12:50:49.768Z,4.8
2018-12-18T12:52:49.737Z,4.9
2018-12-18T12:54:49.718Z,5.1
2018-12-18T12:56:50.006Z,5.1
2018-12-18T12:58:49.940Z,3.5
2018-12-18T13:00:50.029Z,3.5
2018-12-18T13:02:49.992Z,3.8
2018-12-18T13:04:50.303Z,3.4
2018-12-18T13:06:49.594Z,3.4
2018-12-18T13:08:49.536Z,3.4
2018-12-18T13:10:50.511Z,3.4
2018-12-18T13:12:50.489Z,3.6
2018-12-18T13:14:49.527Z,3.0
2018-12-18T13:16:49.695Z,3.0
2018-12-18T13:18:49.877Z,3.1
2018-12-18T13:20:50.061Z,3.1
2018-12-18T13:22:50.294Z,3.4
2018-12-18T13:24:50.486Z,3.5
2018-12-18T13:26:50.093Z,3.5
2018-12-18T13:28:50.255Z,3.5
2018-12-18T13:30:50.345Z,3.9
2018-12-18T13:32:49.534Z,4.5
2018-12-18T13:34:50.159Z,4.5
2018-12-18T13:36:49.623Z,4.2
2018-12-18T13:38:49.780Z,4.3
2018-12-18T13:40:49.988Z,4.3
2018-12-18T13:42:50.144Z,4.5
2018-12-18T13:44:50.265Z,4.7
2018-12-18T13:46:50.344Z,5.0
2018-12-18T13:48:50.358Z,5.0
2018-12-18T13:50:50.429Z,5.6
2018-12-18T13:52:50.390Z,5.2
2018-12-18T13:54:50.482Z,5.2
2018-12-18T13:56:49.614Z,5.2
2018-12-18T13:58:49.662Z,5.7
2018-12-18T14:00:49.689Z,5.1
2018-12-18T14:02:49.630Z,5.5
2018-12-18T14:04:50.030Z,5.5
2018-12-18T14:06:50.262Z,5.8
2018-12-18T14:08:50.278Z,5.8
2018-12-18T14:10:50.028Z,6.1
2018-12-18T14:12:50.135Z,6.7
2018-12-18T14:14:50.153Z,6.3
2018-12-18T14:16:50.359Z,6.0
2018-12-18T14:18:50.399Z,6.0
2018-12-18T14:20:50.321Z,6.2
2018-12-18T14:22:50.307Z,5.9
2018-12-18T14:24:50.286Z,6.7
2018-12-18T14:26:49.575Z,6.7
2018-12-18T14:28:49.660Z,6.5
2018-12-18T14:30:49.768Z,7.1
2018-12-18T14:32:49.759Z,7.1
2018-12-18T14:34:50.011Z,7.0
2018-12-18T14:36:56.582Z,7.0
2018-12-18T14:38:49.686Z,6.5
2018-12-18T14:40:49.668Z,7.4
2018-12-18T14:42:49.608Z,7.4
2018-12-18T14:44:49.588Z,8.0
2018-12-18T14:46:49.796Z,8.0
2018-12-18T14:48:49.764Z,10.9
2018-12-18T14:50:49.780Z,11.4
2018-12-18T14:52:49.800Z,11.4
2018-12-18T14:54:49.837Z,11.7
2018-12-18T14:56:49.982Z,12.8
2018-12-18T14:58:49.988Z,13.0
2018-12-18T15:00:50.017Z,13.8
2018-12-18T15:02:49.988Z,13.1
2018-12-18T15:04:50.330Z,13.1
2018-12-18T15:06:50.497Z,13.6
2018-12-18T15:08:49.511Z,14.4
2018-12-18T15:10:50.681Z,14.8
2018-12-18T15:12:49.647Z,14.8
2018-12-18T15:14:49.711Z,13.9
2018-12-18T15:16:49.896Z,14.8
2018-12-18T15:18:49.959Z,14.4
2018-12-18T15:20:49.918Z,14.7
2018-12-18T15:22:49.875Z,14.7
2018-12-18T15:24:49.808Z,14.9
2018-12-18T15:26:49.969Z,14.8
2018-12-18T15:28:49.935Z,14.2
2018-12-18T15:30:49.931Z,14.2
2018-12-18T15:32:49.967Z,15.3
2018-12-18T15:34:50.245Z,15.3
2018-12-18T15:36:50.351Z,14.2
2018-12-18T15:38:50.382Z,14.2
2018-12-18T15:40:50.329Z,15.5
2018-12-18T15:42:50.262Z,15.1
2018-12-18T15:44:50.236Z,15.1
2018-12-18T15:46:49.568Z,16.7
2018-12-18T15:48:49.612Z,14.6
2018-12-18T15:50:49.672Z,14.8
2018-12-18T15:52:49.701Z,14.8
2018-12-18T15:54:49.706Z,14.2
2018-12-18T15:56:49.881Z,15.0
2018-12-18T15:58:49.893Z,15.1
2018-12-18T16:00:49.877Z,15.2
2018-12-18T16:02:49.868Z,15.2
2018-12-18T16:04:50.244Z,15.0
2018-12-18T16:06:50.414Z,15.4
2018-12-18T16:08:50.398Z,14.1
2018-12-18T16:10:50.449Z,14.1
2018-12-18T16:12:50.409Z,14.5
2018-12-18T16:14:50.416Z,15.4
2018-12-18T16:16:49.552Z,14.8
2018-12-18T16:18:49.552Z,14.6
2018-12-18T16:20:49.527Z,16.1
2018-12-18T16:22:50.431Z,16.1
2018-12-18T16:24:50.456Z,16.0
2018-12-18T16:26:49.693Z,16.0
2018-12-18T16:28:49.721Z,17.5
2018-12-18T16:30:49.717Z,16.4
2018-12-18T16:32:49.671Z,16.4
2018-12-18T16:34:50.160Z,16.7
2018-12-18T16:36:50.342Z,16.5
2018-12-18T16:38:50.386Z,17.0
2018-12-18T16:40:50.326Z,17.1
2018-12-18T16:42:50.299Z,17.1
2018-12-18T16:44:50.260Z,17.5
2018-12-18T16:46:50.492Z,17.6
2018-12-18T16:48:50.508Z,18.4
2018-12-18T16:50:49.548Z,17.6
2018-12-18T16:52:49.760Z,17.6
2018-12-18T16:54:49.757Z,19.3
2018-12-18T16:56:49.891Z,19.4
2018-12-18T16:58:49.828Z,18.3
2018-12-18T17:00:49.852Z,18.3
2018-12-18T17:02:49.904Z,18.5
2018-12-18T17:04:50.160Z,21.2
2018-12-18T17:06:50.281Z,18.3
2018-12-18T17:08:50.287Z,18.3
2018-12-18T17:10:50.373Z,18.8
2018-12-18T17:12:50.332Z,18.5
2018-12-18T17:14:50.334Z,19.3
2018-12-18T17:16:49.519Z,19.4
2018-12-18T17:18:49.546Z,19.4
2018-12-18T17:20:49.551Z,18.4
2018-12-18T17:22:49.676Z,18.9
2018-12-18T17:24:49.652Z,18.7
2018-12-18T17:26:49.857Z,18.7
2018-12-18T17:28:49.843Z,19.1
2018-12-18T17:30:49.842Z,17.7
2018-12-18T17:32:49.806Z,17.7
2018-12-18T17:34:50.213Z,16.8
2018-12-18T17:36:50.397Z,16.8
2018-12-18T17:38:50.345Z,16.4
2018-12-18T17:40:50.340Z,17.1
2018-12-18T17:42:50.291Z,16.1
2018-12-18T17:44:50.245Z,16.1
2018-12-18T17:46:50.489Z,15.8
2018-12-18T17:48:50.466Z,16.7
2018-12-18T17:50:50.438Z,16.2
2018-12-18T17:52:49.576Z,16.1
2018-12-18T17:54:49.590Z,15.5
2018-12-18T17:56:49.808Z,15.8
2018-12-18T17:58:49.831Z,15.8
2018-12-18T18:00:49.779Z,15.9
2018-12-18T18:02:49.675Z,16.1
2018-12-18T18:04:50.051Z,15.1
2018-12-18T18:06:50.227Z,15.1
2018-12-18T18:08:50.172Z,15.5
2018-12-18T18:10:50.150Z,16.5
2018-12-18T18:12:50.143Z,17.0
2018-12-18T18:14:50.132Z,16.7
2018-12-18T18:16:50.334Z,16.7
2018-12-18T18:18:50.374Z,16.4
2018-12-18T18:20:50.351Z,16.4
2018-12-18T18:22:50.401Z,16.8
2018-12-18T18:24:50.398Z,16.8
2018-12-18T18:26:49.662Z,16.4
2018-12-18T18:28:49.670Z,16.3
2018-12-18T18:30:49.787Z,17.1
2018-12-18T18:32:49.788Z,17.1
2018-12-18T18:34:50.079Z,17.3
2018-12-18T18:36:50.265Z,17.3
2018-12-18T18:38:50.268Z,17.0
2018-12-18T18:40:50.257Z,16.7
2018-12-18T18:42:50.301Z,16.9
2018-12-18T18:44:50.298Z,16.9
2018-12-18T18:46:49.545Z,16.9
2018-12-18T18:48:49.570Z,16.7
2018-12-18T18:50:49.551Z,16.8
2018-12-18T18:52:49.578Z,17.0
2018-12-18T18:54:49.573Z,17.0
2018-12-18T18:56:49.774Z,19.4
2018-12-18T18:58:49.810Z,17.7
2018-12-18T19:00:49.834Z,17.7
2018-12-18T19:02:49.948Z,17.7
2018-12-18T19:04:50.248Z,17.2
2018-12-18T19:06:50.501Z,18.3
2018-12-18T19:08:50.492Z,17.8
2018-12-18T19:10:50.498Z,19.0
2018-12-18T19:12:49.596Z,19.1
2018-12-18T19:14:49.572Z,19.2
2018-12-18T19:16:49.971Z,19.2
2018-12-18T19:18:49.947Z,18.7
2018-12-18T19:20:49.970Z,18.7
2018-12-18T19:22:50.037Z,19.6
2018-12-18T19:24:50.034Z,19.6
2018-12-18T19:26:50.225Z,19.1
2018-12-18T19:28:50.602Z,19.0
2018-12-18T19:30:49.595Z,19.0
2018-12-18T19:32:49.761Z,17.1
2018-12-18T19:34:50.042Z,17.1
2018-12-18T19:36:50.276Z,20.5
2018-12-18T19:38:50.252Z,17.8
2018-12-18T19:40:50.298Z,17.8
2018-12-18T19:42:50.250Z,19.1
2018-12-18T19:44:50.170Z,19.1
2018-12-18T19:46:50.424Z,18.6
2018-12-18T19:48:50.296Z,18.5
2018-12-18T19:50:50.351Z,18.8
2018-12-18T19:52:50.475Z,18.8
2018-12-18T19:54:50.499Z,19.3
2018-12-18T19:56:49.720Z,18.6
2018-12-18T19:58:49.756Z,19.7
2018-12-18T20:00:49.823Z,19.7
2018-12-18T20:02:49.856Z,18.8
2018-12-18T20:04:50.175Z,18.2
2018-12-18T20:06:50.482Z,19.8
2018-12-18T20:08:49.557Z,18.9
2018-12-18T20:10:49.567Z,18.9
2018-12-18T20:12:49.538Z,19.9
2018-12-18T20:14:49.603Z,19.8
2018-12-18T20:16:49.769Z,19.7
2018-12-18T20:18:49.799Z,19.7
2018-12-18T20:20:49.839Z,19.7
2018-12-18T20:22:49.849Z,20.1
2018-12-18T20:24:49.867Z,20.9
2018-12-18T20:26:50.106Z,23.4
2018-12-18T20:28:50.122Z,21.6
2018-12-18T20:30:50.058Z,21.6
2018-12-18T20:32:50.074Z,20.9
2018-12-18T20:34:49.578Z,21.9
2018-12-18T20:36:49.836Z,22.2
2018-12-18T20:38:49.793Z,22.2
2018-12-18T20:40:49.871Z,22.8
2018-12-18T20:42:49.921Z,22.8
2018-12-18T20:44:49.977Z,22.7
2018-12-18T20:46:50.117Z,23.6
2018-12-18T20:48:50.185Z,23.9
2018-12-18T20:50:50.185Z,24.3
2018-12-18T20:52:50.267Z,24.3
2018-12-18T20:54:50.332Z,24.0
2018-12-18T20:56:50.422Z,24.3
2018-12-18T20:58:49.528Z,24.4
2018-12-18T21:00:49.657Z,24.4
2018-12-18T21:02:49.642Z,24.3
2018-12-18T21:04:49.844Z,25.0
2018-12-18T21:06:49.743Z,25.0
2018-12-18T21:08:49.672Z,25.0
2018-12-18T21:10:49.527Z,25.0
2018-12-18T21:12:50.360Z,25.0
2018-12-18T21:14:50.263Z,24.9
2018-12-18T21:16:50.333Z,24.9
2018-12-18T21:18:50.209Z,24.9
2018-12-18T21:20:50.054Z,24.9
2018-12-18T21:22:50.032Z,25.5
2018-12-18T21:24:49.891Z,25.3
2018-12-18T21:26:50.034Z,25.3
2018-12-18T21:28:49.875Z,26.5
2018-12-18T21:30:49.773Z,26.5
2018-12-18T21:32:49.651Z,27.3
2018-12-18T21:34:49.855Z,28.2
2018-12-18T21:36:49.954Z,29.8
2018-12-18T21:38:49.752Z,29.8
2018-12-18T21:40:49.538Z,29.5
2018-12-18T21:42:50.506Z,30.4
2018-12-18T21:44:50.248Z,30.1
2018-12-18T21:46:50.502Z,30.3
2018-12-18T21:48:50.309Z,30.3
2018-12-18T21:50:50.129Z,31.3
2018-12-18T21:52:49.970Z,32.7
2018-12-18T21:54:49.905Z,32.7
2018-12-18T21:56:50.177Z,30.4
2018-12-18T21:58:50.015Z,32.6
2018-12-18T22:00:49.834Z,33.4
2018-12-18T22:02:49.622Z,32.7
2018-12-18T22:04:49.805Z,31.7
2018-12-18T22:06:49.916Z,31.7
2018-12-18T22:08:49.692Z,31.8
2018-12-18T22:10:49.536Z,38.3
2018-12-18T22:12:50.418Z,33.9
2018-12-18T22:14:50.201Z,33.9
2018-12-18T22:16:50.249Z,32.1
2018-12-18T22:18:50.045Z,32.1
2018-12-18T22:20:49.832Z,32.8
2018-12-18T22:22:49.664Z,32.8
2018-12-18T22:24:49.573Z,30.5
2018-12-18T22:26:49.622Z,30.5
2018-12-18T22:28:50.371Z,32.2
2018-12-18T22:30:50.248Z,32.2
2018-12-18T22:32:50.081Z,37.6
2018-12-18T22:34:50.154Z,33.4
2018-12-18T22:36:50.275Z,33.4
2018-12-18T22:38:50.145Z,33.4
2018-12-18T22:40:50.025Z,32.7
2018-12-18T22:42:49.859Z,30.4
2018-12-18T22:44:49.690Z,30.4
2018-12-18T22:46:49.702Z,31.3
2018-12-18T22:48:49.571Z,31.4
2018-12-18T22:50:50.359Z,31.6
2018-12-18T22:52:50.246Z,31.3
2018-12-18T22:54:50.070Z,31.3
2018-12-18T22:56:50.258Z,32.2
2018-12-18T22:58:50.094Z,32.2
2018-12-18T23:00:49.988Z,32.1
2018-12-18T23:02:49.831Z,32.6
2018-12-18T23:04:50.222Z,32.4
2018-12-18T23:06:50.223Z,32.4
2018-12-18T23:08:50.597Z,35.0
2018-12-18T23:10:50.492Z,34.2
2018-12-18T23:12:50.286Z,34.2
2018-12-18T23:14:50.130Z,36.2
2018-12-18T23:16:50.279Z,34.5
2018-12-18T23:18:50.056Z,35.3
2018-12-18T23:20:49.932Z,34.5
2018-12-18T23:22:49.796Z,34.5
2018-12-18T23:24:49.673Z,37.6
2018-12-18T23:26:49.821Z,36.2
2018-12-18T23:28:49.661Z,37.4
2018-12-18T23:30:49.522Z,37.4
2018-12-18T23:32:50.344Z,35.9
2018-12-18T23:34:50.477Z,35.9
2018-12-18T23:36:49.551Z,35.1
2018-12-18T23:38:57.174Z,35.1
2018-12-18T23:40:50.170Z,35.4
2018-12-18T23:42:50.080Z,35.7
2018-12-18T23:44:49.888Z,35.7
2018-12-18T23:46:50.040Z,45.8
2018-12-18T23:48:49.848Z,36.2
2018-12-18T23:50:49.747Z,35.0
2018-12-18T23:52:49.609Z,36.7
2018-12-18T23:54:50.504Z,36.7
2018-12-18T23:56:49.537Z,36.4
2018-12-18T23:58:50.336Z,36.2
